Aviation Digital Data Service (ADDS)

Output produced by METARs form (0136 UTC 23 November 2017)
found at http://www.aviationweather.gov/adds/metars/
 
GQPP 230100Z 33005KT 8000 NSC 20/19 Q1014 NOSIG
TAF GQPP 222300Z 2300/2324 34013KT 8000 NSC 
     PROB40 
     TEMPO 2405/2409 2000 BR BKN005